Time;durP1;ratioP1;P1;durP2;ratioP2;P2;SDS_P1;SDS_P2;PMS_P1;PMS_P2;Temp;Humidity;BMP_temperature;BMP_pressure;BME280_temperature;BME280_humidity;BME280_pressure;Samples;Min_cycle;Max_cycle;Signal;HPM_P1;HPM_P2
2022/06/19 00:00:07;;;;;;;4.05;1.85;;;;;;;16.60;65.33;100726.65;1421753;91;21435;-81
2022/06/19 00:02:34;;;;;;;5.30;2.03;;;;;;;16.59;65.31;100727.16;1444015;91;21412;-82
2022/06/19 00:05:00;;;;;;;4.93;1.77;;;;;;;16.58;65.18;100725.51;1431456;91;21494;-83
2022/06/19 00:07:26;;;;;;;3.13;1.80;;;;;;;16.55;65.31;100725.88;1440652;90;22315;-82
2022/06/19 00:09:52;;;;;;;2.67;2.17;;;;;;;16.53;65.19;100722.53;1389363;94;21568;-82
2022/06/19 00:12:18;;;;;;;2.63;1.37;;;;;;;16.50;65.17;100716.11;1434392;90;21443;-82
2022/06/19 00:14:46;;;;;;;4.30;2.70;;;;;;;16.43;65.38;100716.11;1444145;90;21472;-83
2022/06/19 00:17:14;;;;;;;5.77;2.13;;;;;;;16.43;65.24;100723.30;1427316;90;21456;-82
2022/06/19 00:19:40;;;;;;;5.20;2.10;;;;;;;16.42;65.06;100722.95;1405295;91;21399;-82
2022/06/19 00:22:07;;;;;;;11.57;1.83;;;;;;;16.39;65.11;100722.80;1429878;90;21860;-82
2022/06/19 00:24:34;;;;;;;4.63;1.80;;;;;;;16.37;65.66;100722.66;1443560;90;22315;-82
2022/06/19 00:27:00;;;;;;;6.50;2.00;;;;;;;16.36;65.89;100719.66;1439747;90;21496;-82
2022/06/19 00:29:28;;;;;;;2.87;2.10;;;;;;;16.37;66.27;100728.00;1433069;90;21495;-82
2022/06/19 00:31:55;;;;;;;3.87;1.50;;;;;;;16.37;66.24;100721.31;1407048;93;23350;-82
2022/06/19 00:34:22;;;;;;;6.07;2.10;;;;;;;16.32;67.31;100726.39;1439315;90;23518;-81
2022/06/19 00:36:50;;;;;;;10.67;2.00;;;;;;;16.21;66.31;100727.11;1428559;90;21545;-82
2022/06/19 00:39:18;;;;;;;3.20;1.90;;;;;;;16.17;67.28;100728.48;1437625;90;21659;-82
2022/06/19 00:41:46;;;;;;;4.73;1.80;;;;;;;16.11;66.95;100729.67;1429744;90;21583;-82
2022/06/19 00:44:15;;;;;;;4.73;2.13;;;;;;;16.07;66.57;100730.53;1441714;90;21566;-82
2022/06/19 00:47:18;;;;;;;3.40;1.80;;;;;;;16.06;66.55;100734.22;1429241;90;21428;-82
2022/06/19 00:50:02;;;;;;;3.77;2.47;;;;;;;16.02;67.16;100728.89;1422070;91;23527;-82
2022/06/19 00:52:39;;;;;;;3.50;1.80;;;;;;;15.97;67.51;100729.94;1439796;90;22108;-82
2022/06/19 00:55:22;;;;;;;4.97;1.60;;;;;;;15.98;67.50;100729.75;1428835;91;21509;-82
2022/06/19 00:57:53;;;;;;;5.10;1.90;;;;;;;16.00;67.56;100727.75;1422017;90;23448;-82
2022/06/19 01:00:26;;;;;;;2.63;2.00;;;;;;;16.05;67.14;100731.20;1427224;91;21635;-81
2022/06/19 01:02:56;;;;;;;6.77;1.87;;;;;;;16.09;66.59;100729.87;1404930;91;21435;-81
2022/06/19 01:05:25;;;;;;;2.30;1.63;;;;;;;16.11;66.37;100728.34;1413267;93;21421;-82
2022/06/19 01:07:52;;;;;;;2.50;1.70;;;;;;;16.08;66.87;100722.84;1406550;93;21480;-81
2022/06/19 01:10:18;;;;;;;3.37;2.03;;;;;;;16.08;66.49;100721.51;1417296;92;22427;-81
2022/06/19 01:12:46;;;;;;;4.77;1.90;;;;;;;16.07;66.34;100722.52;1411679;92;21591;-81
2022/06/19 01:15:17;;;;;;;2.60;1.67;;;;;;;16.08;65.89;100718.02;1407211;92;21413;-81
2022/06/19 01:17:49;;;;;;;10.80;2.57;;;;;;;16.08;65.95;100724.17;1411079;92;21332;-81
2022/06/19 01:20:16;;;;;;;7.40;2.07;;;;;;;16.06;65.69;100712.86;1428666;91;21530;-81
2022/06/19 01:23:10;;;;;;;3.83;2.00;;;;;;;16.06;65.78;100711.53;1427761;91;23100;-81
2022/06/19 01:25:40;;;;;;;6.33;1.77;;;;;;;16.08;66.15;100720.68;1436394;91;22508;-82
2022/06/19 01:29:00;;;;;;;9.90;1.83;;;;;;;16.08;66.03;100722.84;1432828;90;21331;-81
2022/06/19 01:30:51;;;;;;;4.20;1.67;;;;;;;16.08;65.80;100709.49;1413369;90;21590;-81
2022/06/19 01:33:22;;;;;;;6.03;2.40;;;;;;;16.07;65.74;100709.17;1417487;90;21605;-81
2022/06/19 01:35:51;;;;;;;8.17;2.03;;;;;;;16.04;65.91;100709.53;1395043;93;21547;-81
2022/06/19 01:38:21;;;;;;;2.87;2.00;;;;;;;16.01;65.88;100717.89;1381308;93;21482;-81
2022/06/19 01:40:53;;;;;;;4.60;1.80;;;;;;;15.97;65.83;100716.09;1425583;90;23281;-81
2022/06/19 01:43:20;;;;;;;5.07;2.10;;;;;;;15.94;65.94;100714.25;1434183;90;21361;-81
2022/06/19 01:45:54;;;;;;;5.83;2.20;;;;;;;15.92;65.68;100714.95;1430109;90;21605;-81
2022/06/19 01:48:23;;;;;;;2.63;2.00;;;;;;;15.89;65.69;100713.97;1391748;94;21265;-81
2022/06/19 01:50:51;;;;;;;3.47;1.70;;;;;;;15.88;66.02;100709.61;1446572;90;21420;-81
2022/06/19 01:53:28;;;;;;;6.80;2.17;;;;;;;15.87;66.33;100714.13;1438369;90;22329;-81
2022/06/19 01:55:55;;;;;;;3.33;2.10;;;;;;;15.83;66.46;100712.83;1390325;94;21482;-81
2022/06/19 01:58:25;;;;;;;5.07;2.47;;;;;;;15.82;66.44;100716.48;1388766;94;21460;-81
2022/06/19 02:00:51;;;;;;;7.40;2.52;;;;;;;15.80;66.09;100715.84;1408173;92;21484;-81
2022/06/19 02:03:23;;;;;;;4.53;1.90;;;;;;;15.76;65.89;100714.01;1413901;92;21702;-81
2022/06/19 02:05:50;;;;;;;4.07;2.37;;;;;;;15.72;65.97;100712.70;1415535;92;21462;-81
2022/06/19 02:08:17;;;;;;;13.60;2.80;;;;;;;15.69;65.85;100714.39;1432382;90;21391;-81
2022/06/19 02:10:46;;;;;;;4.70;2.00;;;;;;;15.64;65.84;100712.70;1451491;90;21413;-81
2022/06/19 02:13:17;;;;;;;4.03;2.23;;;;;;;15.60;65.93;100716.74;1438483;90;21561;-82
2022/06/19 02:15:45;;;;;;;6.22;2.37;;;;;;;15.55;65.95;100715.92;1448119;90;21613;-81
2022/06/19 02:18:26;;;;;;;5.83;3.00;;;;;;;15.51;65.92;100715.12;1425945;90;21435;-81
2022/06/19 02:20:53;;;;;;;;;;;;;;;15.52;66.16;100715.44;1415554;92;23238;-81
2022/06/19 02:23:24;;;;;;;5.57;2.17;;;;;;;15.51;65.90;100719.95;1439233;90;20242;-81
2022/06/19 02:25:50;;;;;;;5.23;2.00;;;;;;;15.52;65.95;100711.44;1441350;90;21501;-81
2022/06/19 02:28:18;;;;;;;7.43;2.97;;;;;;;15.54;65.69;100714.27;1446810;90;21562;-81
2022/06/19 02:30:47;;;;;;;9.27;2.53;;;;;;;15.56;65.47;100716.73;1449971;90;21413;-81
2022/06/19 02:33:17;;;;;;;4.67;2.43;;;;;;;15.56;65.12;100706.07;1429037;90;21457;-81
2022/06/19 02:35:43;;;;;;;3.93;2.80;;;;;;;15.58;64.97;100705.41;1380188;94;21531;-80
2022/06/19 02:38:12;;;;;;;2.80;2.07;;;;;;;15.58;65.11;100704.07;1411702;92;21546;-80
2022/06/19 02:41:02;;;;;;;5.97;2.20;;;;;;;15.55;64.97;100700.42;1413810;90;21406;-80
2022/06/19 02:43:36;;;;;;;4.37;1.90;;;;;;;15.51;65.25;100698.61;1436923;90;21480;-82
2022/06/19 02:46:02;;;;;;;3.73;2.23;;;;;;;15.47;65.45;100697.78;1430516;91;21473;-83
2022/06/19 02:48:32;;;;;;;7.20;2.30;;;;;;;15.45;65.29;100701.11;1432079;90;21427;-83
2022/06/19 02:51:02;;;;;;;7.87;2.53;;;;;;;15.43;65.25;100701.81;1397286;94;21316;-83
2022/06/19 02:53:29;;;;;;;6.40;2.67;;;;;;;15.44;65.38;100696.79;1431658;91;21502;-81
2022/06/19 02:55:57;;;;;;;4.90;2.20;;;;;;;15.48;65.52;100706.13;1389077;94;21382;-80
2022/06/19 02:58:24;;;;;;;4.63;2.20;;;;;;;15.54;65.46;100698.77;1434678;90;21413;-81
2022/06/19 03:00:51;;;;;;;4.20;2.03;;;;;;;15.58;65.08;100699.56;1395044;92;22240;-81
2022/06/19 03:03:29;;;;;;;4.17;2.10;;;;;;;15.62;64.85;100696.03;1446152;90;21332;-81
2022/06/19 03:05:55;;;;;;;4.17;2.13;;;;;;;15.65;65.08;100694.38;1421667;91;22360;-81
2022/06/19 03:08:21;;;;;;;4.90;2.10;;;;;;;15.67;64.71;100695.52;1441262;90;21369;-81
2022/06/19 03:10:48;;;;;;;8.57;2.50;;;;;;;15.71;64.46;100699.05;1446678;90;21368;-81
2022/06/19 03:13:20;;;;;;;9.20;2.23;;;;;;;15.76;64.23;100691.33;1443533;90;21398;-81
2022/06/19 03:15:46;;;;;;;3.90;2.23;;;;;;;15.82;64.17;100687.64;1444646;90;23354;-80
2022/06/19 03:18:12;;;;;;;7.70;2.40;;;;;;;15.86;63.97;100690.30;1439113;90;21428;-81
2022/06/19 03:20:38;;;;;;;6.40;2.40;;;;;;;15.90;63.78;100692.42;1447740;90;21391;-81
2022/06/19 03:23:05;;;;;;;3.77;2.17;;;;;;;15.93;63.63;100696.58;1442301;90;21383;-81
2022/06/19 03:25:31;;;;;;;5.43;2.23;;;;;;;15.98;63.48;100691.55;1440549;90;21390;-81
2022/06/19 03:27:57;;;;;;;3.93;2.23;;;;;;;16.02;63.34;100699.52;1451914;90;21421;-81
2022/06/19 03:30:24;;;;;;;12.03;2.10;;;;;;;16.07;63.18;100693.16;1438627;91;21375;-81
2022/06/19 03:32:50;;;;;;;3.53;2.10;;;;;;;16.12;63.01;100694.80;1402690;93;21473;-81
2022/06/19 03:35:17;;;;;;;4.67;2.30;;;;;;;16.18;62.79;100695.42;1402530;93;22279;-81
2022/06/19 03:37:43;;;;;;;4.30;2.40;;;;;;;16.23;62.66;100698.39;1418406;91;21420;-81
2022/06/19 03:40:11;;;;;;;6.83;2.53;;;;;;;16.29;62.53;100689.35;1434697;90;22352;-81
2022/06/19 03:42:37;;;;;;;5.27;2.03;;;;;;;16.37;62.66;100693.27;1390050;94;21575;-80
2022/06/19 03:45:05;;;;;;;7.87;2.00;;;;;;;16.45;62.89;100687.87;1416005;92;22359;-81
2022/06/19 03:47:31;;;;;;;6.87;2.07;;;;;;;16.57;62.85;100693.61;1411318;92;21376;-81
2022/06/19 03:49:57;;;;;;;6.53;2.73;;;;;;;16.68;62.36;100691.84;1412131;92;21442;-81
2022/06/19 03:52:23;;;;;;;3.67;2.10;;;;;;;16.79;61.73;100690.61;1415095;90;21369;-81
2022/06/19 03:54:49;;;;;;;7.73;1.60;;;;;;;16.86;61.50;100687.52;1440369;90;21583;-81
2022/06/19 03:57:16;;;;;;;6.73;2.00;;;;;;;16.93;61.27;100692.48;1431903;91;22372;-81
2022/06/19 03:59:42;;;;;;;2.87;1.80;;;;;;;17.01;61.21;100696.41;1388251;94;21496;-81
2022/06/19 04:02:10;;;;;;;2.27;1.70;;;;;;;17.07;60.99;100701.02;1423134;91;22360;-81
2022/06/19 04:04:39;;;;;;;3.17;1.80;;;;;;;17.14;60.78;100700.59;1428462;91;21353;-81
2022/06/19 04:07:09;;;;;;;8.27;2.27;;;;;;;17.20;60.64;100697.70;1395498;92;22376;-81
2022/06/19 04:09:35;;;;;;;5.90;2.30;;;;;;;17.26;60.88;100701.48;1415090;92;21575;-81
2022/06/19 04:12:01;;;;;;;5.70;1.80;;;;;;;17.29;60.95;100697.09;1412206;92;21435;-81
2022/06/19 04:14:27;;;;;;;3.17;1.60;;;;;;;17.33;60.74;100695.22;1412621;92;21561;-81
2022/06/19 04:16:53;;;;;;;4.00;1.60;;;;;;;17.36;59.68;100693.50;1452123;90;21442;-82
2022/06/19 04:19:19;;;;;;;8.63;2.27;;;;;;;17.44;59.71;100695.77;1447637;90;22426;-83
2022/06/19 04:21:46;;;;;;;5.10;2.00;;;;;;;17.49;59.79;100700.89;1440834;90;21435;-82
2022/06/19 04:24:15;;;;;;;3.17;1.80;;;;;;;17.56;59.46;100707.14;1415689;91;22397;-82
2022/06/19 04:26:42;;;;;;;7.20;1.60;;;;;;;17.63;59.06;100704.54;1429104;91;22470;-82
2022/06/19 04:29:10;;;;;;;2.97;1.50;;;;;;;17.71;58.83;100705.78;1402900;92;21310;-82
2022/06/19 04:31:37;;;;;;;3.83;2.60;;;;;;;17.79;58.48;100706.22;1425296;91;21405;-82
2022/06/19 04:34:03;;;;;;;5.60;1.50;;;;;;;17.91;58.47;100707.90;1428393;91;21501;-80
2022/06/19 04:36:31;;;;;;;3.67;1.63;;;;;;;18.02;58.32;100706.89;1434646;90;22522;-80
2022/06/19 04:38:58;;;;;;;4.10;1.57;;;;;;;18.12;57.91;100707.09;1437721;90;21376;-80
2022/06/19 04:41:36;;;;;;;3.47;1.60;;;;;;;18.23;57.13;100702.56;1431758;90;21502;-81
2022/06/19 04:44:06;;;;;;;7.33;2.37;;;;;;;18.34;57.35;100704.73;1446335;90;23481;-80
2022/06/19 04:46:32;;;;;;;2.53;1.93;;;;;;;18.47;57.29;100700.00;1451102;90;23333;-80
2022/06/19 04:48:58;;;;;;;6.17;2.13;;;;;;;18.60;57.26;100702.80;1437443;90;21441;-80
2022/06/19 04:51:25;;;;;;;4.80;1.63;;;;;;;18.74;56.84;100701.62;1434850;91;21331;-81
2022/06/19 04:53:53;;;;;;;10.53;2.30;;;;;;;18.86;56.54;100698.71;1380855;94;21532;-81
2022/06/19 04:56:20;;;;;;;4.47;2.43;;;;;;;19.01;56.33;100695.91;1429572;91;21524;-81
2022/06/19 04:58:48;;;;;;;4.80;2.03;;;;;;;19.13;56.24;100697.87;1426922;91;22434;-81
2022/06/19 05:01:23;;;;;;;1.60;1.40;;;;;;;19.27;56.07;100704.13;1386789;94;22383;-81
2022/06/19 05:03:57;;;;;;;5.33;1.53;;;;;;;19.41;55.84;100705.03;1432539;90;21427;-81
2022/06/19 05:06:25;;;;;;;6.63;1.57;;;;;;;19.57;55.49;100706.56;1384828;94;21391;-81
2022/06/19 05:08:51;;;;;;;58.83;5.50;;;;;;;19.72;54.93;100707.27;1431948;90;21494;-81
2022/06/19 05:11:19;;;;;;;4.40;1.60;;;;;;;19.88;54.59;100706.59;1433210;91;22337;-81
2022/06/19 05:13:45;;;;;;;3.07;1.60;;;;;;;20.03;54.29;100719.36;1434022;91;21508;-81
2022/06/19 05:16:16;;;;;;;4.70;2.23;;;;;;;20.18;54.26;100717.84;1427698;90;21494;-80
2022/06/19 05:18:43;;;;;;;3.00;1.55;;;;;;;20.33;54.39;100714.97;1429490;90;21442;-80
2022/06/19 05:21:10;;;;;;;3.35;1.27;;;;;;;20.48;53.87;100714.25;1409108;91;21407;-81
2022/06/19 05:23:41;;;;;;;4.78;2.12;;;;;;;20.63;53.46;100716.27;1443264;90;22411;-80
2022/06/19 05:26:11;;;;;;;4.80;1.70;;;;;;;20.77;53.27;100709.53;1439910;90;21575;-81
2022/06/19 05:28:38;;;;;;;1.72;1.62;;;;;;;20.90;52.65;100710.88;1437195;90;21369;-81
2022/06/19 05:31:05;;;;;;;5.17;1.42;;;;;;;21.02;52.62;100708.37;1390791;93;22354;-81
2022/06/19 05:33:33;;;;;;;1.92;1.72;;;;;;;21.16;52.18;100707.31;1429033;90;21419;-84
2022/06/19 05:35:59;;;;;;;3.40;1.85;;;;;;;21.30;51.89;100709.46;1405081;93;21665;-80
2022/06/19 05:38:26;;;;;;;6.90;1.57;;;;;;;21.39;51.55;100709.04;1428296;91;21591;-80
2022/06/19 05:40:56;;;;;;;4.80;1.27;;;;;;;21.52;51.61;100705.49;1384726;94;22470;-81
2022/06/19 05:43:24;;;;;;;8.30;1.90;;;;;;;21.68;50.87;100712.78;1427395;90;21443;-81
2022/06/19 05:45:59;;;;;;;11.85;2.10;;;;;;;21.82;50.54;100708.98;1431279;90;21397;-81
2022/06/19 05:48:26;;;;;;;7.75;1.70;;;;;;;21.96;50.40;100714.61;1407260;91;21451;-80
2022/06/19 05:51:03;;;;;;;1.90;1.25;;;;;;;22.12;49.82;100713.26;1409594;92;21376;-81
2022/06/19 05:53:33;;;;;;;6.53;1.35;;;;;;;22.27;49.51;100708.97;1425002;91;21382;-81
2022/06/19 05:55:59;;;;;;;50.63;3.23;;;;;;;22.43;49.32;100715.69;1432390;90;21516;-81
2022/06/19 05:58:26;;;;;;;4.90;2.35;;;;;;;22.53;48.58;100712.81;1392574;93;21438;-80
2022/06/19 06:00:53;;;;;;;8.30;1.70;;;;;;;22.66;48.12;100711.05;1441192;90;22311;-80
2022/06/19 06:03:21;;;;;;;4.12;1.90;;;;;;;22.77;47.42;100713.03;1436855;91;21465;-79
2022/06/19 06:05:48;;;;;;;1.85;1.37;;;;;;;22.90;47.02;100720.16;1446629;90;21391;-87
2022/06/19 06:08:15;;;;;;;1.75;1.15;;;;;;;23.06;47.00;100716.12;1451205;89;21546;-86
2022/06/19 06:10:41;;;;;;;13.65;1.90;;;;;;;23.22;46.71;100702.05;1449167;90;21427;-89
2022/06/19 06:13:08;;;;;;;2.83;1.47;;;;;;;23.37;45.88;100701.14;1446758;90;22778;-90
2022/06/19 06:15:35;;;;;;;3.40;1.70;;;;;;;23.54;45.48;100703.23;1432982;90;21613;-90
2022/06/19 06:18:02;;;;;;;4.67;1.27;;;;;;;23.68;44.91;100709.28;1396451;93;21459;-90
2022/06/19 06:20:30;;;;;;;6.40;1.82;;;;;;;23.78;44.59;100710.42;1435727;89;21649;-86
2022/06/19 06:22:57;;;;;;;15.45;2.40;;;;;;;23.85;44.42;100711.18;1437192;90;22513;-86
2022/06/19 06:25:23;;;;;;;2.85;1.80;;;;;;;23.97;44.61;100706.35;1427288;91;21563;-88
2022/06/19 06:27:50;;;;;;;5.87;1.72;;;;;;;24.08;43.98;100713.66;1412531;91;21391;-88
2022/06/19 06:30:20;;;;;;;4.15;1.77;;;;;;;24.20;43.53;100713.19;1445007;90;21488;-87
2022/06/19 06:32:46;;;;;;;2.73;1.57;;;;;;;24.30;43.02;100713.97;1440822;90;21414;-89
2022/06/19 06:35:12;;;;;;;5.45;1.80;;;;;;;24.42;42.90;100714.81;1396072;92;22746;-88
2022/06/19 06:37:39;;;;;;;8.43;1.95;;;;;;;24.55;42.96;100713.82;1441042;90;21561;-90
2022/06/19 06:40:10;;;;;;;4.08;1.60;;;;;;;24.67;42.76;100711.95;1439068;90;22204;-89
2022/06/19 06:42:37;;;;;;;1.67;1.50;;;;;;;24.80;42.67;100710.91;1432465;90;21451;-88
2022/06/19 06:45:07;;;;;;;5.47;1.80;;;;;;;24.88;41.37;100708.36;1411077;90;21464;-89
2022/06/19 06:47:33;;;;;;;4.08;1.92;;;;;;;24.96;41.24;100707.48;1435747;90;21497;-89
2022/06/19 06:49:59;;;;;;;6.72;1.40;;;;;;;25.04;40.67;100710.91;1436925;90;21449;-89
2022/06/19 06:52:25;;;;;;;2.40;1.55;;;;;;;25.09;40.06;100709.14;1435897;90;21443;-89
2022/06/19 06:54:51;;;;;;;1.62;1.40;;;;;;;25.14;38.75;100717.38;1437038;90;21361;-89
2022/06/19 06:57:17;;;;;;;11.12;2.15;;;;;;;25.17;38.10;100711.48;1409413;91;21480;-88
2022/06/19 06:59:43;;;;;;;2.62;1.67;;;;;;;25.22;38.40;100708.08;1435313;91;21443;-89
2022/06/19 07:02:10;;;;;;;3.83;2.02;;;;;;;25.29;38.41;100705.23;1434850;89;21553;-88
2022/06/19 07:04:37;;;;;;;1.77;1.37;;;;;;;25.39;38.62;100706.81;1409945;92;21385;-89
2022/06/19 07:07:03;;;;;;;8.38;1.98;;;;;;;25.40;38.16;100697.62;1392733;93;21342;-90
2022/06/19 07:09:31;;;;;;;3.12;2.08;;;;;;;25.50;38.45;100701.91;1404657;92;21373;-92
2022/06/19 07:11:57;;;;;;;5.85;2.02;;;;;;;25.60;38.66;100699.38;1408617;93;21395;-89
2022/06/19 07:14:23;;;;;;;3.67;1.82;;;;;;;25.66;38.45;100693.03;1410939;92;21392;-91
2022/06/19 07:16:48;;;;;;;5.12;2.72;;;;;;;25.81;38.01;100697.92;1406127;91;21444;-90
2022/06/19 07:19:15;;;;;;;8.53;2.17;;;;;;;25.86;37.37;100689.89;1423445;90;21421;-91
2022/06/19 07:21:41;;;;;;;8.30;1.80;;;;;;;25.99;37.84;100687.43;1444084;90;23379;-90
2022/06/19 07:24:07;;;;;;;5.65;2.25;;;;;;;26.09;37.43;100690.31;1434554;90;21450;-90
2022/06/19 07:26:34;;;;;;;3.95;1.42;;;;;;;26.18;37.11;100689.41;1421774;91;21577;-89
2022/06/19 07:29:01;;;;;;;2.37;1.95;;;;;;;26.30;37.09;100689.33;1422430;90;21397;-91
2022/06/19 07:31:27;;;;;;;4.72;1.55;;;;;;;26.43;36.67;100691.70;1416118;91;21441;-90
2022/06/19 07:33:53;;;;;;;179.27;9.73;;;;;;;26.50;35.94;100688.34;1431407;91;21561;-91
2022/06/19 07:36:23;;;;;;;6.17;2.08;;;;;;;26.58;35.50;100694.41;1427288;91;21479;-91
2022/06/19 07:38:50;;;;;;;6.40;1.98;;;;;;;26.66;35.37;100692.64;1431941;90;21405;-90
2022/06/19 07:41:17;;;;;;;5.33;2.05;;;;;;;26.75;34.78;100694.69;1429929;90;21353;-90
2022/06/19 07:43:46;;;;;;;3.37;1.50;;;;;;;26.72;32.71;100693.00;1431210;91;21502;-88
2022/06/19 07:46:13;;;;;;;9.20;1.50;;;;;;;26.86;34.33;100684.80;1413022;92;21457;-89
2022/06/19 07:51:28;;;;;;;3.75;1.62;;;;;;;27.06;33.83;100686.98;1409024;92;22403;-89
2022/06/19 07:53:54;;;;;;;8.95;1.67;;;;;;;27.15;33.63;100681.94;1408092;92;21413;-88
2022/06/19 07:56:20;;;;;;;4.03;1.50;;;;;;;27.22;32.48;100681.27;1411376;92;21480;-89
2022/06/19 07:58:47;;;;;;;4.15;1.50;;;;;;;27.31;33.44;100667.52;1414166;92;21413;-90
2022/06/19 08:01:13;;;;;;;5.50;1.15;;;;;;;27.37;33.30;100665.69;1416096;90;22625;-90
2022/06/19 08:03:39;;;;;;;4.22;1.05;;;;;;;27.44;32.93;100669.84;1436095;90;21442;-88
2022/06/19 08:06:07;;;;;;;10.53;1.80;;;;;;;27.46;32.87;100672.31;1433241;90;22351;-90
2022/06/19 08:08:34;;;;;;;4.97;1.70;;;;;;;27.52;32.46;100669.94;1433541;91;21492;-96
2022/06/19 08:11:01;;;;;;;4.10;1.10;;;;;;;27.58;32.55;100672.99;1434852;90;21361;-93
2022/06/19 08:13:31;;;;;;;6.10;1.17;;;;;;;27.63;32.50;100674.95;1429916;90;21434;-86
2022/06/19 08:16:02;;;;;;;;;;;;;;;27.74;32.63;100672.64;1408964;92;21391;-87
2022/06/19 08:18:30;;;;;;;6.30;1.52;;;;;;;27.87;31.81;100672.78;1431524;91;20332;-84
2022/06/19 08:20:56;;;;;;;5.95;1.80;;;;;;;27.96;32.21;100667.70;1416800;91;21604;-85
2022/06/19 08:23:23;;;;;;;3.47;1.30;;;;;;;28.09;32.47;100668.66;1404279;92;22390;-90
2022/06/19 08:25:50;;;;;;;4.90;1.35;;;;;;;28.16;31.44;100666.53;1386369;94;21540;-89
2022/06/19 08:28:28;;;;;;;2.20;1.47;;;;;;;28.23;31.29;100675.86;1415600;90;21502;-90
2022/06/19 08:30:50;;;;;;;1.70;1.37;;;;;;;28.28;31.18;100674.00;1407313;92;21769;-89
2022/06/19 08:33:16;;;;;;;3.05;1.47;;;;;;;28.31;30.62;100670.77;1388185;93;21622;-90
2022/06/19 08:35:50;;;;;;;6.12;1.85;;;;;;;28.44;31.18;100672.78;1437059;91;21557;-91
2022/06/19 08:38:21;;;;;;;2.55;1.27;;;;;;;28.56;30.73;100680.22;1445600;90;21549;-91
2022/06/19 08:41:30;;;;;;;3.77;1.42;;;;;;;28.62;30.95;100668.28;1423591;90;21420;-87
2022/06/19 08:44:31;;;;;;;5.22;1.20;;;;;;;28.76;30.97;100663.20;1398050;92;21705;-80
2022/06/19 08:47:21;;;;;;;3.62;1.25;;;;;;;28.93;30.59;100664.40;1405718;92;22441;-80
2022/06/19 08:50:31;;;;;;;2.58;1.60;;;;;;;28.98;30.20;100657.63;1418819;92;21894;-83
2022/06/19 08:53:30;;;;;;;8.38;1.42;;;;;;;28.94;30.22;100656.49;1409676;92;22331;-88
2022/06/19 08:56:18;;;;;;;3.05;1.30;;;;;;;28.95;29.30;100650.80;1406380;89;21664;-85
2022/06/19 08:59:29;;;;;;;41.33;4.05;;;;;;;28.92;29.50;100650.51;1389053;92;21620;-86
2022/06/19 09:02:07;;;;;;;2.72;1.20;;;;;;;29.01;29.54;100653.00;1437273;90;21346;-86
2022/06/19 09:08:13;;;;;;;6.12;1.25;;;;;;;29.23;28.99;100650.12;1435239;89;21966;-87
2022/06/19 09:10:55;;;;;;;4.47;1.60;;;;;;;29.20;28.22;100651.50;1424397;91;21656;-86
2022/06/19 09:13:47;;;;;;;3.12;1.45;;;;;;;29.32;29.12;100638.16;1431193;91;21332;-87
2022/06/19 09:16:21;;;;;;;2.25;1.35;;;;;;;29.42;28.78;100642.30;1403311;93;21506;-86
2022/06/19 09:19:17;;;;;;;3.05;1.30;;;;;;;29.58;28.99;100634.44;1490304;91;21287;-86
2022/06/19 09:22:25;;;;;;;8.70;1.30;;;;;;;29.69;28.68;100633.92;1402322;92;21353;-85
2022/06/19 09:25:24;;;;;;;4.53;1.62;;;;;;;29.66;28.65;100628.50;1491676;92;22286;-87
2022/06/19 09:28:11;;;;;;;;;;;;;;;29.78;28.89;100635.58;1351682;92;21303;-86
2022/06/19 09:31:04;;;;;;;4.85;1.52;;;;;;;29.64;27.90;100619.76;1501475;91;20349;-89
2022/06/19 09:34:11;;;;;;;6.00;1.70;;;;;;;29.70;27.39;100630.68;1494778;91;21370;-88
2022/06/19 09:36:50;;;;;;;6.70;1.45;;;;;;;29.65;28.02;100615.93;1423182;91;21458;-91
2022/06/19 09:39:42;;;;;;;4.22;1.10;;;;;;;29.76;28.37;100621.41;1419647;91;21463;-90
2022/06/19 09:42:42;;;;;;;3.55;1.20;;;;;;;29.96;28.20;100617.89;1430109;90;21486;-89
2022/06/19 09:45:23;;;;;;;7.12;1.60;;;;;;;30.08;27.96;100611.05;1430351;91;21637;-90
2022/06/19 09:47:58;;;;;;;5.22;1.65;;;;;;;30.14;27.78;100605.86;1418804;91;22285;-88
2022/06/19 09:50:51;;;;;;;11.48;1.60;;;;;;;30.20;27.85;100604.50;1443456;89;21856;-88
2022/06/19 09:53:54;;;;;;;91.67;5.75;;;;;;;30.27;27.67;100600.45;1443089;89;22382;-88
2022/06/19 09:56:55;;;;;;;3.60;1.67;;;;;;;30.27;27.54;100603.73;1330967;97;21653;-81
2022/06/19 09:59:54;;;;;;;11.22;1.10;;;;;;;30.38;27.58;100603.95;1320060;99;22538;-81
2022/06/19 10:02:30;;;;;;;2.47;1.47;;;;;;;30.41;27.13;100602.59;1311380;100;21739;-80
2022/06/19 10:05:25;;;;;;;8.15;1.85;;;;;;;30.37;26.75;100607.79;1316448;99;21473;-80
2022/06/19 10:07:59;;;;;;;5.30;1.07;;;;;;;30.38;27.04;100605.88;1317316;99;21559;-81
2022/06/19 10:10:39;;;;;;;4.53;1.20;;;;;;;30.50;27.10;100607.23;1271418;100;22550;-80
2022/06/19 10:13:17;;;;;;;9.90;2.12;;;;;;;30.51;26.64;100602.03;1352595;97;22965;-79
2022/06/19 10:15:46;;;;;;;2.58;1.32;;;;;;;30.60;26.61;100594.64;1343180;97;21634;-80
2022/06/19 10:18:36;;;;;;;10.28;1.37;;;;;;;30.56;26.78;100600.66;1314946;100;21527;-80
2022/06/19 10:22:13;;;;;;;3.35;1.42;;;;;;;30.81;27.21;100593.50;1328670;99;21580;-80
2022/06/19 10:24:01;;;;;;;3.17;1.17;;;;;;;30.94;26.63;100591.55;1386612;99;21341;-80
2022/06/19 10:26:52;;;;;;;2.58;1.20;;;;;;;31.06;26.07;100595.88;1319759;100;21583;-80
2022/06/19 10:29:45;;;;;;;14.98;1.60;;;;;;;31.09;26.47;100592.59;1259497;100;22281;-80
2022/06/19 10:32:30;;;;;;;5.22;1.45;;;;;;;31.18;26.39;100581.33;1402058;97;21526;-79
2022/06/19 10:35:23;;;;;;;2.22;1.15;;;;;;;31.29;26.10;100578.00;1457929;90;21295;-79
2022/06/19 10:38:25;;;;;;;3.12;1.60;;;;;;;31.37;26.27;100578.25;1508813;91;21207;-79
2022/06/19 10:42:00;;;;;;;3.50;1.30;;;;;;;31.56;26.33;100577.57;1509795;90;21414;-79
2022/06/19 10:43:53;;;;;;;2.95;1.20;;;;;;;31.63;25.45;100575.34;1379453;90;21413;-79
2022/06/19 10:46:21;;;;;;;6.40;1.42;;;;;;;31.61;26.14;100561.94;1368430;91;21347;-80
2022/06/19 10:49:21;;;;;;;10.38;1.17;;;;;;;31.62;25.55;100561.38;1366379;90;21347;-81
2022/06/19 10:52:06;;;;;;;7.55;1.35;;;;;;;31.58;25.34;100560.33;1489507;90;21421;-80
2022/06/19 10:54:52;;;;;;;1.30;0.98;;;;;;;31.49;25.08;100557.39;1501913;90;22227;-81
2022/06/19 10:57:36;;;;;;;9.70;1.40;;;;;;;31.41;24.92;100559.35;1341685;92;21405;-81
2022/06/19 11:00:09;;;;;;;10.10;1.37;;;;;;;31.52;25.58;100550.53;1417752;90;21442;-81
2022/06/19 11:05:41;;;;;;;9.18;1.20;;;;;;;31.69;25.59;100551.77;1419722;90;21376;-81
2022/06/19 11:08:09;;;;;;;4.33;1.05;;;;;;;31.73;25.42;100545.72;1433462;90;22175;-81
2022/06/19 11:10:45;;;;;;;6.53;1.10;;;;;;;31.78;25.44;100550.59;1427111;89;21553;-81
2022/06/19 11:13:13;;;;;;;2.52;1.20;;;;;;;31.86;25.31;100559.56;1497826;90;21445;-79
2022/06/19 11:15:48;;;;;;;8.00;1.80;;;;;;;31.91;25.41;100551.34;1387644;90;21354;-80
2022/06/19 11:18:25;;;;;;;4.20;1.10;;;;;;;32.02;25.33;100551.23;1508745;91;21273;-80
2022/06/19 11:21:07;;;;;;;5.90;1.12;;;;;;;32.20;25.48;100553.83;1426051;90;21488;-80
2022/06/19 11:23:49;;;;;;;2.15;1.15;;;;;;;32.26;25.23;100549.37;1364249;90;21294;-81
2022/06/19 11:26:35;;;;;;;3.50;1.32;;;;;;;32.23;24.98;100552.69;1363383;93;21414;-81
2022/06/19 11:29:14;;;;;;;5.55;1.07;;;;;;;32.42;25.29;100540.98;1517099;90;21584;-80
2022/06/19 11:32:06;;;;;;;5.30;0.85;;;;;;;32.53;25.29;100537.05;1455565;94;21438;-81
2022/06/19 11:34:44;;;;;;;5.00;1.20;;;;;;;32.56;24.96;100543.31;1523296;90;21186;-81
2022/06/19 11:37:33;;;;;;;5.53;0.85;;;;;;;32.53;24.55;100536.50;1449717;90;22776;-81
2022/06/19 11:40:06;;;;;;;2.65;1.27;;;;;;;32.43;24.69;100543.45;1519069;89;21288;-81
2022/06/19 11:42:49;;;;;;;7.45;1.07;;;;;;;32.44;24.81;100539.59;1499946;91;21229;-80
2022/06/19 11:45:26;;;;;;;2.70;1.17;;;;;;;32.56;24.78;100533.73;1460780;90;21279;-81
2022/06/19 11:48:02;;;;;;;2.27;0.90;;;;;;;32.68;24.43;100526.46;1340742;92;22206;-81
2022/06/19 11:50:40;;;;;;;2.27;0.85;;;;;;;32.77;24.49;100524.17;1513086;90;21465;-81
2022/06/19 11:53:18;;;;;;;4.08;1.25;;;;;;;32.75;24.11;100526.38;1504627;91;22576;-83
2022/06/19 11:55:50;;;;;;;2.00;1.12;;;;;;;32.71;24.07;100523.94;1454266;90;21370;-81
2022/06/19 11:58:37;;;;;;;1.65;1.17;;;;;;;32.64;23.86;100523.50;1412372;90;21399;-82